sensor_id;sensor_type;location;lat;lon;timestamp;pressure;altitude;pressure_sealevel;temperature;humidity
55990;BME280;41875;55.806;38.082;2023-02-20T00:01:09;97287.34;;;-4.56;59.96
55990;BME280;41875;55.806;38.082;2023-02-20T00:03:37;97289.94;;;-3.68;59.20
55990;BME280;41875;55.806;38.082;2023-02-20T00:06:06;97286.88;;;-3.73;58.25
55990;BME280;41875;55.806;38.082;2023-02-20T00:08:34;97281.03;;;-3.54;57.81
55990;BME280;41875;55.806;38.082;2023-02-20T00:11:03;97287.13;;;-3.76;58.26
55990;BME280;41875;55.806;38.082;2023-02-20T00:13:31;97281.72;;;-3.52;58.35
55990;BME280;41875;55.806;38.082;2023-02-20T00:16:01;97278.34;;;-3.53;57.66
55990;BME280;41875;55.806;38.082;2023-02-20T00:18:30;97286.34;;;-4.32;58.68
55990;BME280;41875;55.806;38.082;2023-02-20T00:20:58;97284.94;;;-4.36;59.74
55990;BME280;41875;55.806;38.082;2023-02-20T00:23:26;97288.97;;;-4.00;59.77
55990;BME280;41875;55.806;38.082;2023-02-20T00:25:55;97289.84;;;-4.10;59.67
55990;BME280;41875;55.806;38.082;2023-02-20T00:28:23;97286.91;;;-3.52;58.52
55990;BME280;41875;55.806;38.082;2023-02-20T00:30:52;97284.81;;;-3.91;57.92
55990;BME280;41875;55.806;38.082;2023-02-20T00:33:22;97286.19;;;-3.54;57.99
55990;BME280;41875;55.806;38.082;2023-02-20T00:35:51;97282.88;;;-3.45;56.98
55990;BME280;41875;55.806;38.082;2023-02-20T00:38:19;97290.41;;;-3.74;57.47
55990;BME280;41875;55.806;38.082;2023-02-20T00:40:47;97292.28;;;-3.65;57.73
55990;BME280;41875;55.806;38.082;2023-02-20T00:43:16;97275.75;;;-3.53;57.06
55990;BME280;41875;55.806;38.082;2023-02-20T00:45:44;97284.84;;;-3.70;58.02
55990;BME280;41875;55.806;38.082;2023-02-20T00:48:12;97284.19;;;-4.16;58.64
55990;BME280;41875;55.806;38.082;2023-02-20T00:50:42;97278.22;;;-4.16;59.04
55990;BME280;41875;55.806;38.082;2023-02-20T00:53:10;97267.28;;;-4.08;58.26
55990;BME280;41875;55.806;38.082;2023-02-20T00:55:39;97275.84;;;-4.08;58.67
55990;BME280;41875;55.806;38.082;2023-02-20T00:58:09;97271.09;;;-3.91;58.19
55990;BME280;41875;55.806;38.082;2023-02-20T01:00:38;97276.13;;;-3.90;57.79
55990;BME280;41875;55.806;38.082;2023-02-20T01:03:06;97276.78;;;-4.09;58.27
55990;BME280;41875;55.806;38.082;2023-02-20T01:05:36;97269.28;;;-3.79;57.83
55990;BME280;41875;55.806;38.082;2023-02-20T01:08:06;97268.28;;;-3.46;57.32
55990;BME280;41875;55.806;38.082;2023-02-20T01:10:35;97276.38;;;-3.60;56.80
55990;BME280;41875;55.806;38.082;2023-02-20T01:13:03;97268.22;;;-3.77;57.43
55990;BME280;41875;55.806;38.082;2023-02-20T01:15:31;97274.56;;;-4.14;58.08
55990;BME280;41875;55.806;38.082;2023-02-20T01:18:00;97271.31;;;-3.94;58.29
55990;BME280;41875;55.806;38.082;2023-02-20T01:20:28;97272.84;;;-3.92;57.49
55990;BME280;41875;55.806;38.082;2023-02-20T01:22:56;97271.94;;;-4.02;57.50
55990;BME280;41875;55.806;38.082;2023-02-20T01:25:27;97265.16;;;-3.82;57.67
55990;BME280;41875;55.806;38.082;2023-02-20T01:27:55;97268.00;;;-3.85;57.56
55990;BME280;41875;55.806;38.082;2023-02-20T01:30:23;97273.25;;;-3.75;56.96
55990;BME280;41875;55.806;38.082;2023-02-20T01:32:52;97279.13;;;-3.73;57.22
55990;BME280;41875;55.806;38.082;2023-02-20T01:35:20;97282.53;;;-3.73;57.92
55990;BME280;41875;55.806;38.082;2023-02-20T01:37:49;97280.97;;;-3.96;57.21
55990;BME280;41875;55.806;38.082;2023-02-20T01:40:18;97284.59;;;-4.32;58.54
55990;BME280;41875;55.806;38.082;2023-02-20T01:42:49;97278.38;;;-3.96;57.58
55990;BME280;41875;55.806;38.082;2023-02-20T01:45:27;97284.66;;;-4.10;58.02
55990;BME280;41875;55.806;38.082;2023-02-20T01:47:57;97278.47;;;-4.31;58.10
55990;BME280;41875;55.806;38.082;2023-02-20T01:50:30;97282.19;;;-4.12;58.02
55990;BME280;41875;55.806;38.082;2023-02-20T01:53:02;97273.63;;;-3.80;57.28
55990;BME280;41875;55.806;38.082;2023-02-20T01:55:35;97281.53;;;-3.60;56.83
55990;BME280;41875;55.806;38.082;2023-02-20T01:58:10;97286.50;;;-3.69;56.91
55990;BME280;41875;55.806;38.082;2023-02-20T02:00:39;97278.47;;;-4.31;57.77
55990;BME280;41875;55.806;38.082;2023-02-20T02:03:11;97289.81;;;-4.66;59.06
55990;BME280;41875;55.806;38.082;2023-02-20T02:05:43;97283.56;;;-4.40;58.41
55990;BME280;41875;55.806;38.082;2023-02-20T02:08:14;97286.38;;;-4.66;59.03
55990;BME280;41875;55.806;38.082;2023-02-20T02:10:50;97289.19;;;-3.91;57.49
55990;BME280;41875;55.806;38.082;2023-02-20T02:13:21;97288.03;;;-3.66;56.54
55990;BME280;41875;55.806;38.082;2023-02-20T02:15:50;97297.63;;;-3.57;55.83
55990;BME280;41875;55.806;38.082;2023-02-20T02:18:37;97297.47;;;-3.23;55.31
55990;BME280;41875;55.806;38.082;2023-02-20T02:24:36;97294.72;;;-3.63;55.85
55990;BME280;41875;55.806;38.082;2023-02-20T02:27:29;97295.47;;;-3.73;56.70
55990;BME280;41875;55.806;38.082;2023-02-20T02:30:34;97299.63;;;-4.37;58.03
55990;BME280;41875;55.806;38.082;2023-02-20T02:33:34;97301.56;;;-4.06;57.96
55990;BME280;41875;55.806;38.082;2023-02-20T02:36:38;97303.47;;;-3.76;56.41
55990;BME280;41875;55.806;38.082;2023-02-20T02:39:15;97302.94;;;-3.91;56.90
55990;BME280;41875;55.806;38.082;2023-02-20T02:41:53;97300.34;;;-3.91;56.93
55990;BME280;41875;55.806;38.082;2023-02-20T02:44:29;97308.16;;;-4.02;56.55
55990;BME280;41875;55.806;38.082;2023-02-20T02:47:01;97313.03;;;-4.32;57.78
55990;BME280;41875;55.806;38.082;2023-02-20T02:49:37;97317.59;;;-4.24;57.76
55990;BME280;41875;55.806;38.082;2023-02-20T02:52:09;97312.34;;;-3.90;57.08
55990;BME280;41875;55.806;38.082;2023-02-20T02:54:39;97314.06;;;-4.23;57.43
55990;BME280;41875;55.806;38.082;2023-02-20T02:57:19;97323.00;;;-4.50;57.78
55990;BME280;41875;55.806;38.082;2023-02-20T02:59:53;97321.50;;;-4.41;58.05
55990;BME280;41875;55.806;38.082;2023-02-20T03:02:24;97323.59;;;-4.57;58.03
55990;BME280;41875;55.806;38.082;2023-02-20T03:04:57;97330.88;;;-4.29;57.77
55990;BME280;41875;55.806;38.082;2023-02-20T03:07:33;97320.13;;;-4.01;56.98
55990;BME280;41875;55.806;38.082;2023-02-20T03:10:07;97327.72;;;-4.32;57.81
55990;BME280;41875;55.806;38.082;2023-02-20T03:12:37;97329.75;;;-3.92;56.25
55990;BME280;41875;55.806;38.082;2023-02-20T03:15:12;97332.22;;;-3.90;56.80
55990;BME280;41875;55.806;38.082;2023-02-20T03:18:07;97323.75;;;-3.60;55.56
55990;BME280;41875;55.806;38.082;2023-02-20T03:20:42;97326.44;;;-3.50;55.70
55990;BME280;41875;55.806;38.082;2023-02-20T03:23:17;97330.34;;;-3.56;55.13
55990;BME280;41875;55.806;38.082;2023-02-20T03:25:51;97333.22;;;-3.70;56.14
55990;BME280;41875;55.806;38.082;2023-02-20T03:28:23;97333.06;;;-3.69;56.00
55990;BME280;41875;55.806;38.082;2023-02-20T03:30:56;97341.38;;;-3.54;55.73
55990;BME280;41875;55.806;38.082;2023-02-20T03:33:31;97333.25;;;-3.49;55.37
55990;BME280;41875;55.806;38.082;2023-02-20T03:36:23;97336.91;;;-3.52;55.78
55990;BME280;41875;55.806;38.082;2023-02-20T03:39:18;97332.03;;;-3.66;56.10
55990;BME280;41875;55.806;38.082;2023-02-20T03:42:09;97334.94;;;-3.59;55.87
55990;BME280;41875;55.806;38.082;2023-02-20T03:45:04;97331.41;;;-3.58;56.13
55990;BME280;41875;55.806;38.082;2023-02-20T03:47:35;97332.66;;;-3.85;56.80
55990;BME280;41875;55.806;38.082;2023-02-20T03:50:08;97336.69;;;-3.48;56.02
55990;BME280;41875;55.806;38.082;2023-02-20T03:52:57;97337.72;;;-3.84;56.61
55990;BME280;41875;55.806;38.082;2023-02-20T03:55:27;97334.34;;;-3.63;55.87
55990;BME280;41875;55.806;38.082;2023-02-20T03:58:02;97342.47;;;-3.68;55.59
55990;BME280;41875;55.806;38.082;2023-02-20T04:00:38;97339.31;;;-4.04;57.29
55990;BME280;41875;55.806;38.082;2023-02-20T04:03:14;97332.66;;;-4.29;57.19
55990;BME280;41875;55.806;38.082;2023-02-20T04:05:47;97332.97;;;-4.11;57.91
55990;BME280;41875;55.806;38.082;2023-02-20T04:08:22;97338.25;;;-4.13;57.46
55990;BME280;41875;55.806;38.082;2023-02-20T04:11:01;97340.31;;;-4.62;58.76
55990;BME280;41875;55.806;38.082;2023-02-20T04:13:32;97335.78;;;-5.05;59.65
55990;BME280;41875;55.806;38.082;2023-02-20T04:16:01;97333.59;;;-4.64;59.05
55990;BME280;41875;55.806;38.082;2023-02-20T04:18:31;97331.94;;;-4.77;59.10
55990;BME280;41875;55.806;38.082;2023-02-20T04:21:06;97344.63;;;-4.85;59.31
55990;BME280;41875;55.806;38.082;2023-02-20T04:23:41;97341.56;;;-4.79;59.57
55990;BME280;41875;55.806;38.082;2023-02-20T04:26:16;97346.72;;;-4.90;59.48
55990;BME280;41875;55.806;38.082;2023-02-20T04:28:48;97341.00;;;-4.71;58.96
55990;BME280;41875;55.806;38.082;2023-02-20T04:31:18;97349.00;;;-4.51;58.62
55990;BME280;41875;55.806;38.082;2023-02-20T04:33:49;97344.16;;;-4.79;59.24
55990;BME280;41875;55.806;38.082;2023-02-20T04:36:21;97340.97;;;-4.94;59.17
55990;BME280;41875;55.806;38.082;2023-02-20T04:38:51;97341.34;;;-4.87;59.34
55990;BME280;41875;55.806;38.082;2023-02-20T04:41:25;97342.75;;;-4.60;58.20
55990;BME280;41875;55.806;38.082;2023-02-20T04:43:54;97343.22;;;-4.66;58.13
55990;BME280;41875;55.806;38.082;2023-02-20T04:46:46;97347.94;;;-5.18;59.20
55990;BME280;41875;55.806;38.082;2023-02-20T04:49:15;97347.00;;;-5.17;59.58
55990;BME280;41875;55.806;38.082;2023-02-20T04:51:49;97340.81;;;-5.15;59.00
55990;BME280;41875;55.806;38.082;2023-02-20T04:54:18;97344.84;;;-4.99;59.00
55990;BME280;41875;55.806;38.082;2023-02-20T04:56:48;97332.59;;;-5.20;59.28
55990;BME280;41875;55.806;38.082;2023-02-20T04:59:17;97351.16;;;-5.15;59.01
55990;BME280;41875;55.806;38.082;2023-02-20T05:01:46;97344.78;;;-5.22;59.86
55990;BME280;41875;55.806;38.082;2023-02-20T05:04:18;97345.09;;;-4.80;58.25
55990;BME280;41875;55.806;38.082;2023-02-20T05:06:51;97342.50;;;-5.02;58.72
55990;BME280;41875;55.806;38.082;2023-02-20T05:09:21;97346.63;;;-4.66;58.06
55990;BME280;41875;55.806;38.082;2023-02-20T05:11:51;97335.00;;;-4.49;56.84
55990;BME280;41875;55.806;38.082;2023-02-20T05:14:20;97338.28;;;-4.81;57.84
55990;BME280;41875;55.806;38.082;2023-02-20T05:16:49;97349.31;;;-4.22;56.66
55990;BME280;41875;55.806;38.082;2023-02-20T05:19:18;97333.22;;;-4.25;56.11
55990;BME280;41875;55.806;38.082;2023-02-20T05:21:46;97343.78;;;-4.29;56.15
55990;BME280;41875;55.806;38.082;2023-02-20T05:24:32;97350.88;;;-4.65;56.90
55990;BME280;41875;55.806;38.082;2023-02-20T05:27:02;97347.66;;;-4.11;56.78
55990;BME280;41875;55.806;38.082;2023-02-20T05:29:30;97339.47;;;-4.73;57.67
55990;BME280;41875;55.806;38.082;2023-02-20T05:31:59;97343.09;;;-4.76;57.43
55990;BME280;41875;55.806;38.082;2023-02-20T05:34:27;97339.91;;;-4.80;57.72
55990;BME280;41875;55.806;38.082;2023-02-20T05:36:56;97340.88;;;-4.58;57.15
55990;BME280;41875;55.806;38.082;2023-02-20T05:39:24;97336.78;;;-4.49;56.62
55990;BME280;41875;55.806;38.082;2023-02-20T05:41:52;97340.31;;;-4.50;56.82
55990;BME280;41875;55.806;38.082;2023-02-20T05:44:22;97342.06;;;-5.21;58.63
55990;BME280;41875;55.806;38.082;2023-02-20T05:46:51;97359.78;;;-5.27;58.44
55990;BME280;41875;55.806;38.082;2023-02-20T05:49:21;97354.78;;;-5.06;58.40
55990;BME280;41875;55.806;38.082;2023-02-20T05:51:50;97361.50;;;-5.03;58.13
55990;BME280;41875;55.806;38.082;2023-02-20T05:54:19;97361.06;;;-5.22;58.06
55990;BME280;41875;55.806;38.082;2023-02-20T05:56:48;97365.78;;;-5.27;59.07
55990;BME280;41875;55.806;38.082;2023-02-20T05:59:18;97366.13;;;-5.80;59.93
55990;BME280;41875;55.806;38.082;2023-02-20T06:01:49;97374.75;;;-5.08;58.75
55990;BME280;41875;55.806;38.082;2023-02-20T06:04:23;97361.53;;;-4.81;58.01
55990;BME280;41875;55.806;38.082;2023-02-20T06:06:51;97365.88;;;-4.93;57.42
55990;BME280;41875;55.806;38.082;2023-02-20T06:09:21;97368.13;;;-4.65;57.01
55990;BME280;41875;55.806;38.082;2023-02-20T06:11:51;97373.41;;;-4.55;56.76
55990;BME280;41875;55.806;38.082;2023-02-20T06:14:22;97379.41;;;-4.32;56.12
55990;BME280;41875;55.806;38.082;2023-02-20T06:16:53;97374.69;;;-4.61;56.75
55990;BME280;41875;55.806;38.082;2023-02-20T06:19:24;97356.00;;;-4.76;56.80
55990;BME280;41875;55.806;38.082;2023-02-20T06:21:53;97368.13;;;-4.31;55.76
55990;BME280;41875;55.806;38.082;2023-02-20T06:24:25;97379.19;;;-4.29;55.35
55990;BME280;41875;55.806;38.082;2023-02-20T06:26:54;97381.84;;;-4.31;55.57
55990;BME280;41875;55.806;38.082;2023-02-20T06:29:23;97385.47;;;-4.67;55.60
55990;BME280;41875;55.806;38.082;2023-02-20T06:31:53;97390.06;;;-4.82;57.14
55990;BME280;41875;55.806;38.082;2023-02-20T06:34:21;97392.47;;;-4.34;55.75
55990;BME280;41875;55.806;38.082;2023-02-20T06:36:51;97390.09;;;-4.37;55.92
55990;BME280;41875;55.806;38.082;2023-02-20T06:39:20;97392.66;;;-4.71;55.71
55990;BME280;41875;55.806;38.082;2023-02-20T06:41:48;97392.09;;;-5.10;57.52
55990;BME280;41875;55.806;38.082;2023-02-20T06:44:17;97392.56;;;-4.35;55.99
55990;BME280;41875;55.806;38.082;2023-02-20T06:46:45;97384.81;;;-3.57;53.83
55990;BME280;41875;55.806;38.082;2023-02-20T06:49:15;97398.44;;;-3.55;54.04
55990;BME280;41875;55.806;38.082;2023-02-20T06:51:43;97400.19;;;-4.11;53.79
55990;BME280;41875;55.806;38.082;2023-02-20T06:54:12;97409.31;;;-3.84;55.33
55990;BME280;41875;55.806;38.082;2023-02-20T06:56:40;97391.84;;;-3.48;53.65
55990;BME280;41875;55.806;38.082;2023-02-20T06:59:08;97402.00;;;-3.68;54.08
55990;BME280;41875;55.806;38.082;2023-02-20T07:01:38;97386.44;;;-4.00;53.36
55990;BME280;41875;55.806;38.082;2023-02-20T07:04:19;97398.41;;;-3.44;53.07
55990;BME280;41875;55.806;38.082;2023-02-20T07:06:48;97397.69;;;-3.13;52.07
55990;BME280;41875;55.806;38.082;2023-02-20T07:09:19;97395.63;;;-3.19;52.56
55990;BME280;41875;55.806;38.082;2023-02-20T07:11:48;97398.97;;;-3.73;52.40
55990;BME280;41875;55.806;38.082;2023-02-20T07:14:17;97395.34;;;-3.93;53.83
55990;BME280;41875;55.806;38.082;2023-02-20T07:16:46;97396.59;;;-3.32;52.50
55990;BME280;41875;55.806;38.082;2023-02-20T07:19:16;97394.13;;;-3.66;52.48
55990;BME280;41875;55.806;38.082;2023-02-20T07:21:45;97400.97;;;-3.65;52.79
55990;BME280;41875;55.806;38.082;2023-02-20T07:24:13;97402.66;;;-3.98;53.67
55990;BME280;41875;55.806;38.082;2023-02-20T07:26:42;97402.31;;;-2.74;50.87
55990;BME280;41875;55.806;38.082;2023-02-20T07:29:11;97405.94;;;-2.35;48.97
55990;BME280;41875;55.806;38.082;2023-02-20T07:31:40;97402.00;;;-1.98;48.72
55990;BME280;41875;55.806;38.082;2023-02-20T07:34:09;97400.28;;;-2.19;48.86
55990;BME280;41875;55.806;38.082;2023-02-20T07:36:40;97406.28;;;-2.18;49.19
55990;BME280;41875;55.806;38.082;2023-02-20T07:39:09;97399.66;;;-2.01;48.80
55990;BME280;41875;55.806;38.082;2023-02-20T07:41:39;97401.34;;;-2.52;49.49
55990;BME280;41875;55.806;38.082;2023-02-20T07:44:28;97410.28;;;-1.54;47.15
55990;BME280;41875;55.806;38.082;2023-02-20T07:46:56;97409.91;;;-2.62;48.63
55990;BME280;41875;55.806;38.082;2023-02-20T07:49:24;97408.47;;;-1.73;47.72
55990;BME280;41875;55.806;38.082;2023-02-20T07:51:54;97402.06;;;-2.19;48.03
55990;BME280;41875;55.806;38.082;2023-02-20T07:54:23;97412.63;;;-2.32;48.17
55990;BME280;41875;55.806;38.082;2023-02-20T07:56:53;97409.84;;;-3.14;50.62
55990;BME280;41875;55.806;38.082;2023-02-20T07:59:22;97416.59;;;-2.80;50.75
55990;BME280;41875;55.806;38.082;2023-02-20T08:01:51;97431.28;;;-3.56;52.34
55990;BME280;41875;55.806;38.082;2023-02-20T08:04:19;97426.59;;;-3.73;53.94
55990;BME280;41875;55.806;38.082;2023-02-20T08:06:47;97433.53;;;-3.85;53.15
55990;BME280;41875;55.806;38.082;2023-02-20T08:09:17;97427.59;;;-4.31;54.07
55990;BME280;41875;55.806;38.082;2023-02-20T08:11:45;97434.63;;;-3.99;53.09
55990;BME280;41875;55.806;38.082;2023-02-20T08:14:14;97440.25;;;-3.27;51.20
55990;BME280;41875;55.806;38.082;2023-02-20T08:16:43;97435.38;;;-2.88;50.11
55990;BME280;41875;55.806;38.082;2023-02-20T08:19:11;97435.97;;;-3.17;50.32
55990;BME280;41875;55.806;38.082;2023-02-20T08:21:40;97432.50;;;-3.39;50.67
55990;BME280;41875;55.806;38.082;2023-02-20T08:24:08;97437.22;;;-3.32;50.27
55990;BME280;41875;55.806;38.082;2023-02-20T08:26:43;97432.19;;;-3.13;49.66
55990;BME280;41875;55.806;38.082;2023-02-20T08:29:12;97442.75;;;-3.37;49.60
55990;BME280;41875;55.806;38.082;2023-02-20T08:31:41;97433.63;;;-2.45;48.94
55990;BME280;41875;55.806;38.082;2023-02-20T08:34:10;97435.38;;;-2.67;49.06
55990;BME280;41875;55.806;38.082;2023-02-20T08:36:39;97445.09;;;-3.89;50.70
55990;BME280;41875;55.806;38.082;2023-02-20T08:39:07;97438.50;;;-3.06;50.17
55990;BME280;41875;55.806;38.082;2023-02-20T08:41:40;97432.97;;;-2.06;48.77
55990;BME280;41875;55.806;38.082;2023-02-20T08:44:10;97441.88;;;-3.70;50.43
55990;BME280;41875;55.806;38.082;2023-02-20T08:46:45;97436.47;;;-4.58;52.61
55990;BME280;41875;55.806;38.082;2023-02-20T08:49:14;97436.84;;;-4.51;53.42
55990;BME280;41875;55.806;38.082;2023-02-20T08:51:44;97444.50;;;-5.21;54.16
55990;BME280;41875;55.806;38.082;2023-02-20T08:54:14;97440.16;;;-4.04;51.79
55990;BME280;41875;55.806;38.082;2023-02-20T08:56:43;97448.31;;;-3.09;49.92
55990;BME280;41875;55.806;38.082;2023-02-20T08:59:13;97443.94;;;-2.24;47.61
55990;BME280;41875;55.806;38.082;2023-02-20T09:01:42;97444.41;;;-1.68;46.00
55990;BME280;41875;55.806;38.082;2023-02-20T09:04:11;97454.84;;;-2.94;49.14
55990;BME280;41875;55.806;38.082;2023-02-20T09:06:39;97465.75;;;-3.67;51.50
55990;BME280;41875;55.806;38.082;2023-02-20T09:09:07;97457.09;;;-3.88;52.58
55990;BME280;41875;55.806;38.082;2023-02-20T09:11:36;97459.91;;;-4.03;51.24
55990;BME280;41875;55.806;38.082;2023-02-20T09:14:04;97461.16;;;-3.63;52.47
55990;BME280;41875;55.806;38.082;2023-02-20T09:16:34;97452.50;;;-2.54;48.00
55990;BME280;41875;55.806;38.082;2023-02-20T09:19:03;97443.38;;;-1.96;46.85
55990;BME280;41875;55.806;38.082;2023-02-20T09:21:33;97444.00;;;-2.87;48.91
55990;BME280;41875;55.806;38.082;2023-02-20T09:24:02;97449.09;;;-2.97;48.71
55990;BME280;41875;55.806;38.082;2023-02-20T09:26:32;97447.94;;;-3.04;49.11
55990;BME280;41875;55.806;38.082;2023-02-20T09:29:00;97453.75;;;-3.68;50.50
55990;BME280;41875;55.806;38.082;2023-02-20T09:31:29;97447.44;;;-2.98;49.46
55990;BME280;41875;55.806;38.082;2023-02-20T09:33:59;97435.00;;;-2.83;48.43
55990;BME280;41875;55.806;38.082;2023-02-20T09:36:28;97445.22;;;-3.79;50.63
55990;BME280;41875;55.806;38.082;2023-02-20T09:38:56;97440.03;;;-3.79;51.13
55990;BME280;41875;55.806;38.082;2023-02-20T09:41:26;97446.72;;;-4.11;52.79
55990;BME280;41875;55.806;38.082;2023-02-20T09:44:04;97442.16;;;-4.19;52.69
55990;BME280;41875;55.806;38.082;2023-02-20T09:46:37;97432.63;;;-3.95;51.31
55990;BME280;41875;55.806;38.082;2023-02-20T09:49:11;97449.19;;;-4.21;52.77
55990;BME280;41875;55.806;38.082;2023-02-20T09:51:44;97453.31;;;-3.73;51.65
55990;BME280;41875;55.806;38.082;2023-02-20T09:54:23;97460.34;;;-3.63;51.45
55990;BME280;41875;55.806;38.082;2023-02-20T09:56:56;97455.19;;;-3.31;51.35
55990;BME280;41875;55.806;38.082;2023-02-20T09:59:30;97457.78;;;-3.75;51.46
55990;BME280;41875;55.806;38.082;2023-02-20T10:02:08;97459.44;;;-3.96;52.46
55990;BME280;41875;55.806;38.082;2023-02-20T10:04:46;97457.78;;;-3.75;51.13
55990;BME280;41875;55.806;38.082;2023-02-20T10:07:36;97455.75;;;-3.48;49.81
55990;BME280;41875;55.806;38.082;2023-02-20T10:10:18;97448.88;;;-2.73;48.50
55990;BME280;41875;55.806;38.082;2023-02-20T10:12:55;97454.41;;;-2.56;46.87
55990;BME280;41875;55.806;38.082;2023-02-20T10:15:31;97449.97;;;-3.52;49.24
55990;BME280;41875;55.806;38.082;2023-02-20T10:18:12;97448.16;;;-2.96;48.04
55990;BME280;41875;55.806;38.082;2023-02-20T10:20:52;97444.78;;;-2.45;47.74
55990;BME280;41875;55.806;38.082;2023-02-20T10:23:30;97443.38;;;-3.45;49.22
55990;BME280;41875;55.806;38.082;2023-02-20T10:26:04;97442.00;;;-3.28;48.92
55990;BME280;41875;55.806;38.082;2023-02-20T10:28:33;97458.59;;;-3.74;49.68
55990;BME280;41875;55.806;38.082;2023-02-20T10:31:08;97455.78;;;-2.95;48.56
55990;BME280;41875;55.806;38.082;2023-02-20T10:33:47;97455.00;;;-3.07;48.69
55990;BME280;41875;55.806;38.082;2023-02-20T10:36:22;97438.16;;;-1.96;46.01
55990;BME280;41875;55.806;38.082;2023-02-20T10:38:57;97445.72;;;-2.46;46.67
55990;BME280;41875;55.806;38.082;2023-02-20T10:41:31;97444.06;;;-3.10;49.60
55990;BME280;41875;55.806;38.082;2023-02-20T10:44:03;97440.53;;;-3.42;49.14
55990;BME280;41875;55.806;38.082;2023-02-20T10:46:39;97433.34;;;-2.84;47.81
55990;BME280;41875;55.806;38.082;2023-02-20T10:49:18;97430.91;;;-2.65;47.39
55990;BME280;41875;55.806;38.082;2023-02-20T10:51:55;97427.53;;;-2.98;49.27
55990;BME280;41875;55.806;38.082;2023-02-20T10:54:32;97427.19;;;-2.41;48.22
55990;BME280;41875;55.806;38.082;2023-02-20T10:57:05;97432.34;;;-2.51;47.73
55990;BME280;41875;55.806;38.082;2023-02-20T10:59:40;97435.81;;;-3.04;48.79
55990;BME280;41875;55.806;38.082;2023-02-20T11:02:20;97432.38;;;-3.81;51.72
55990;BME280;41875;55.806;38.082;2023-02-20T11:04:54;97431.13;;;-3.54;51.15
55990;BME280;41875;55.806;38.082;2023-02-20T11:07:27;97443.91;;;-4.08;51.87
55990;BME280;41875;55.806;38.082;2023-02-20T11:09:56;97442.81;;;-3.60;51.33
55990;BME280;41875;55.806;38.082;2023-02-20T11:12:27;97435.94;;;-3.38;50.83
55990;BME280;41875;55.806;38.082;2023-02-20T11:15:00;97440.63;;;-4.10;51.54
55990;BME280;41875;55.806;38.082;2023-02-20T11:17:33;97430.53;;;-3.35;50.83
55990;BME280;41875;55.806;38.082;2023-02-20T11:20:07;97435.00;;;-3.37;49.19
55990;BME280;41875;55.806;38.082;2023-02-20T11:22:57;97431.25;;;-3.12;48.53
55990;BME280;41875;55.806;38.082;2023-02-20T11:25:27;97433.53;;;-2.34;47.07
55990;BME280;41875;55.806;38.082;2023-02-20T11:27:57;97425.63;;;-1.91;47.25
55990;BME280;41875;55.806;38.082;2023-02-20T11:30:29;97428.84;;;-3.03;48.50
55990;BME280;41875;55.806;38.082;2023-02-20T11:33:01;97432.63;;;-2.75;47.53
55990;BME280;41875;55.806;38.082;2023-02-20T11:35:36;97441.94;;;-3.05;48.06
55990;BME280;41875;55.806;38.082;2023-02-20T11:38:34;97439.22;;;-2.82;48.81
55990;BME280;41875;55.806;38.082;2023-02-20T11:41:12;97431.75;;;-2.54;46.62
55990;BME280;41875;55.806;38.082;2023-02-20T11:43:47;97437.81;;;-1.92;45.15
55990;BME280;41875;55.806;38.082;2023-02-20T11:46:27;97438.84;;;-2.35;45.29
55990;BME280;41875;55.806;38.082;2023-02-20T11:49:00;97438.50;;;-2.42;46.81
55990;BME280;41875;55.806;38.082;2023-02-20T11:51:35;97442.06;;;-3.07;47.92
55990;BME280;41875;55.806;38.082;2023-02-20T11:54:13;97450.63;;;-3.39;49.94
55990;BME280;41875;55.806;38.082;2023-02-20T11:56:57;97450.25;;;-3.23;48.74
55990;BME280;41875;55.806;38.082;2023-02-20T11:59:32;97447.22;;;-3.39;49.50
55990;BME280;41875;55.806;38.082;2023-02-20T12:02:23;97445.53;;;-3.61;49.04
55990;BME280;41875;55.806;38.082;2023-02-20T12:05:16;97451.78;;;-2.99;48.52
55990;BME280;41875;55.806;38.082;2023-02-20T12:07:53;97447.31;;;-2.33;46.50
55990;BME280;41875;55.806;38.082;2023-02-20T12:10:28;97454.09;;;-2.84;47.67
55990;BME280;41875;55.806;38.082;2023-02-20T12:12:58;97445.56;;;-2.54;46.62
55990;BME280;41875;55.806;38.082;2023-02-20T12:15:27;97453.38;;;-2.86;48.24
55990;BME280;41875;55.806;38.082;2023-02-20T12:18:17;97460.88;;;-3.04;49.06
55990;BME280;41875;55.806;38.082;2023-02-20T12:20:54;97456.63;;;-2.73;48.60
55990;BME280;41875;55.806;38.082;2023-02-20T12:23:32;97459.97;;;-2.61;48.71
55990;BME280;41875;55.806;38.082;2023-02-20T12:26:27;97452.81;;;-2.69;47.61
55990;BME280;41875;55.806;38.082;2023-02-20T12:29:13;97460.22;;;-2.22;47.17
55990;BME280;41875;55.806;38.082;2023-02-20T12:31:52;97463.09;;;-2.67;48.35
55990;BME280;41875;55.806;38.082;2023-02-20T12:34:37;97459.69;;;-3.00;48.78
55990;BME280;41875;55.806;38.082;2023-02-20T12:37:13;97460.22;;;-3.50;50.28
55990;BME280;41875;55.806;38.082;2023-02-20T12:39:57;97445.28;;;-3.70;51.53
55990;BME280;41875;55.806;38.082;2023-02-20T12:42:39;97460.03;;;-4.16;53.06
55990;BME280;41875;55.806;38.082;2023-02-20T12:45:21;97463.31;;;-4.02;53.39
55990;BME280;41875;55.806;38.082;2023-02-20T12:48:05;97467.16;;;-3.62;52.21
55990;BME280;41875;55.806;38.082;2023-02-20T12:50:51;97460.72;;;-3.79;52.90
55990;BME280;41875;55.806;38.082;2023-02-20T12:53:44;97458.66;;;-3.53;51.80
55990;BME280;41875;55.806;38.082;2023-02-20T12:56:25;97467.19;;;-3.74;52.10
55990;BME280;41875;55.806;38.082;2023-02-20T12:59:00;97462.19;;;-3.43;51.66
55990;BME280;41875;55.806;38.082;2023-02-20T13:01:33;97444.38;;;-3.91;52.30
55990;BME280;41875;55.806;38.082;2023-02-20T13:04:18;97462.69;;;-3.60;51.77
55990;BME280;41875;55.806;38.082;2023-02-20T13:06:53;97456.25;;;-4.00;52.52
55990;BME280;41875;55.806;38.082;2023-02-20T13:09:31;97460.91;;;-3.60;51.48
55990;BME280;41875;55.806;38.082;2023-02-20T13:12:03;97460.72;;;-3.79;52.37
55990;BME280;41875;55.806;38.082;2023-02-20T13:14:47;97464.59;;;-3.74;52.32
55990;BME280;41875;55.806;38.082;2023-02-20T13:17:29;97464.13;;;-3.79;50.83
55990;BME280;41875;55.806;38.082;2023-02-20T13:20:08;97459.78;;;-3.90;51.21
55990;BME280;41875;55.806;38.082;2023-02-20T13:22:37;97459.09;;;-4.15;52.05
55990;BME280;41875;55.806;38.082;2023-02-20T13:25:39;97464.25;;;-3.80;51.87